createdAt,value
2017-04-06T00:00:39.116Z,6.07
2017-04-06T00:01:40.352Z,6.22
2017-04-06T00:02:41.612Z,6.26
2017-04-06T00:03:42.856Z,6.3
2017-04-06T00:04:44.073Z,6.4
2017-04-06T00:05:45.308Z,6.38
2017-04-06T00:06:46.585Z,6.35
2017-04-06T00:07:47.960Z,6.41
2017-04-06T00:08:49.329Z,6.47
2017-04-06T00:09:50.559Z,6.61
2017-04-06T00:10:51.803Z,6.54
2017-04-06T00:11:53.034Z,6.66
2017-04-06T00:12:54.397Z,6.65
2017-04-06T00:13:55.740Z,6.68
2017-04-06T00:14:57.012Z,6.76
2017-04-06T00:15:58.226Z,6.71
2017-04-06T00:16:59.461Z,6.79
2017-04-06T00:18:00.705Z,6.69
2017-04-06T00:19:01.951Z,6.81
2017-04-06T00:20:03.191Z,6.86
2017-04-06T00:21:04.464Z,6.83
2017-04-06T00:22:05.706Z,6.83
2017-04-06T00:23:07.017Z,6.91
2017-04-06T00:24:08.279Z,6.95
2017-04-06T00:25:09.599Z,6.97
2017-04-06T00:26:10.855Z,7.05
2017-04-06T00:27:12.092Z,7.05
2017-04-06T00:28:13.326Z,7.07
2017-04-06T00:29:14.555Z,7.01
2017-04-06T00:30:15.784Z,7.05
2017-04-06T00:31:17.042Z,7.16
2017-04-06T00:32:18.310Z,7.17
2017-04-06T00:33:19.656Z,7.07
2017-04-06T00:34:20.917Z,7.09
2017-04-06T00:35:22.156Z,7.2
2017-04-06T00:36:23.395Z,7.26
2017-04-06T00:37:24.794Z,7.13
2017-04-06T00:38:25.993Z,7.22
2017-04-06T00:39:27.256Z,7.19
2017-04-06T00:40:28.485Z,7.22
2017-04-06T00:41:29.714Z,7.26
2017-04-06T00:42:30.994Z,7.22
2017-04-06T00:43:32.249Z,7.22
2017-04-06T00:44:33.476Z,7.26
2017-04-06T00:45:34.741Z,7.24
2017-04-06T00:46:35.959Z,7.29
2017-04-06T00:47:37.323Z,7.26
2017-04-06T00:48:38.558Z,7.32
2017-04-06T00:49:39.778Z,7.35
2017-04-06T00:50:41.125Z,7.37
2017-04-06T00:51:42.470Z,7.32
2017-04-06T00:52:43.821Z,7.38
2017-04-06T00:53:45.062Z,7.34
2017-04-06T00:54:46.297Z,7.35
2017-04-06T00:55:47.543Z,7.35
2017-04-06T00:56:48.790Z,7.4
2017-04-06T00:57:50.039Z,7.34
2017-04-06T00:58:51.300Z,7.31
2017-04-06T00:59:52.539Z,7.37
2017-04-06T01:00:53.755Z,7.38
2017-04-06T01:01:55.106Z,7.37
2017-04-06T01:02:56.344Z,7.41
2017-04-06T01:03:57.693Z,7.42
2017-04-06T01:04:58.946Z,7.38
2017-04-06T01:06:00.181Z,7.38
2017-04-06T01:07:01.425Z,7.38
2017-04-06T01:08:02.750Z,7.42
2017-04-06T01:09:03.990Z,7.42
2017-04-06T01:10:05.258Z,7.41
2017-04-06T01:11:06.497Z,7.49
2017-04-06T01:12:07.759Z,7.38
2017-04-06T01:13:09.021Z,7.37
2017-04-06T01:14:10.249Z,7.37
2017-04-06T01:15:11.494Z,7.37
2017-04-06T01:16:12.856Z,7.35
2017-04-06T01:17:13.986Z,7.2
2017-04-06T01:18:15.229Z,7.24
2017-04-06T01:19:16.462Z,7.16
2017-04-06T01:20:17.717Z,7.16
2017-04-06T01:21:18.988Z,7.07
2017-04-06T01:22:20.233Z,7.07
2017-04-06T01:23:21.572Z,7.01
2017-04-06T01:24:22.899Z,7.02
2017-04-06T01:25:24.138Z,7.08
2017-04-06T01:26:25.381Z,7.04
2017-04-06T01:27:26.626Z,7.02
2017-04-06T01:28:27.968Z,7.01
2017-04-06T01:29:29.240Z,6.97
2017-04-06T01:30:30.483Z,6.94
2017-04-06T01:31:31.704Z,6.97
2017-04-06T01:32:32.979Z,6.94
2017-04-06T01:33:34.283Z,7.01
2017-04-06T01:34:35.478Z,6.99
2017-04-06T01:35:36.777Z,6.95
2017-04-06T01:36:38.060Z,6.98
2017-04-06T01:37:39.307Z,6.86
2017-04-06T01:38:40.518Z,6.86
2017-04-06T01:39:41.757Z,6.83
2017-04-06T01:40:43.070Z,6.83
2017-04-06T01:41:44.308Z,6.83
2017-04-06T01:42:45.548Z,6.83
2017-04-06T01:43:46.785Z,6.87
2017-04-06T01:44:48.022Z,6.84
2017-04-06T01:45:49.268Z,6.83
2017-04-06T01:46:50.503Z,6.83
2017-04-06T01:47:51.831Z,6.86
2017-04-06T01:48:53.072Z,6.84
2017-04-06T01:49:54.309Z,6.81
2017-04-06T01:50:55.545Z,6.84
2017-04-06T01:51:56.795Z,6.91
2017-04-06T01:52:58.012Z,6.86
2017-04-06T01:53:59.251Z,6.87
2017-04-06T01:55:00.558Z,6.91
2017-04-06T01:56:01.815Z,6.91
2017-04-06T01:57:03.136Z,6.97
2017-04-06T01:58:04.365Z,6.98
2017-04-06T01:59:05.607Z,6.99
2017-04-06T02:00:06.851Z,6.97
2017-04-06T02:01:08.076Z,6.91
2017-04-06T02:02:09.343Z,6.99
2017-04-06T02:03:10.579Z,6.99
2017-04-06T02:04:11.819Z,6.94
2017-04-06T02:05:13.080Z,6.99
2017-04-06T02:06:14.340Z,6.94
2017-04-06T02:07:15.564Z,6.99
2017-04-06T02:08:16.797Z,6.99
2017-04-06T02:09:18.039Z,6.91
2017-04-06T02:10:19.296Z,6.99
2017-04-06T02:11:20.513Z,6.95
2017-04-06T02:12:21.758Z,6.97
2017-04-06T02:13:23.095Z,6.9
2017-04-06T02:14:24.348Z,6.87
2017-04-06T02:15:25.579Z,6.83
2017-04-06T02:16:26.818Z,6.94
2017-04-06T02:17:28.054Z,6.87
2017-04-06T02:18:29.326Z,6.9
2017-04-06T02:19:30.737Z,6.91
2017-04-06T02:20:31.999Z,6.83
2017-04-06T02:21:33.263Z,6.87
2017-04-06T02:22:34.514Z,6.86
2017-04-06T02:23:35.738Z,6.84
2017-04-06T02:24:37.003Z,6.87
2017-04-06T02:25:38.233Z,6.84
2017-04-06T02:26:39.456Z,6.69
2017-04-06T02:27:40.689Z,6.83
2017-04-06T02:28:41.921Z,6.76
2017-04-06T02:29:43.153Z,6.73
2017-04-06T02:30:44.390Z,6.73
2017-04-06T02:31:45.711Z,6.81
2017-04-06T02:32:47.022Z,6.73
2017-04-06T02:33:48.214Z,6.9
2017-04-06T02:34:49.434Z,6.72
2017-04-06T02:35:50.685Z,6.72
2017-04-06T02:36:51.928Z,6.76
2017-04-06T02:37:53.275Z,6.71
2017-04-06T02:38:54.526Z,6.76
2017-04-06T02:39:55.761Z,6.79
2017-04-06T02:40:57.050Z,6.71
2017-04-06T02:41:58.273Z,6.72
2017-04-06T02:42:59.546Z,6.83
2017-04-06T02:44:00.840Z,6.81
2017-04-06T02:45:02.070Z,6.83
2017-04-06T02:46:03.331Z,6.83
2017-04-06T02:47:04.579Z,6.83
2017-04-06T02:48:05.797Z,6.81
2017-04-06T02:49:07.039Z,6.81
2017-04-06T02:50:08.277Z,6.79
2017-04-06T02:51:09.507Z,6.83
2017-04-06T02:52:10.894Z,6.84
2017-04-06T02:53:12.131Z,6.84
2017-04-06T02:54:13.374Z,6.87
2017-04-06T02:55:14.625Z,6.84
2017-04-06T02:56:15.842Z,6.81
2017-04-06T02:57:17.084Z,6.86
2017-04-06T02:58:18.328Z,6.81
2017-04-06T02:59:19.571Z,6.8
2017-04-06T03:00:20.836Z,6.81
2017-04-06T03:01:22.053Z,6.8
2017-04-06T03:02:23.311Z,6.71
2017-04-06T03:03:24.552Z,6.83
2017-04-06T03:04:25.836Z,6.79
2017-04-06T03:05:27.097Z,6.76
2017-04-06T03:06:28.352Z,6.71
2017-04-06T03:07:29.614Z,6.66
2017-04-06T03:08:30.838Z,6.61
2017-04-06T03:09:32.083Z,6.63
2017-04-06T03:10:33.309Z,6.68
2017-04-06T03:11:34.553Z,6.63
2017-04-06T03:12:35.786Z,6.61
2017-04-06T03:13:37.028Z,6.66
2017-04-06T03:14:38.296Z,6.62
2017-04-06T03:15:39.508Z,6.68
2017-04-06T03:16:40.742Z,6.65
2017-04-06T03:17:41.975Z,6.68
2017-04-06T03:18:43.211Z,6.63
2017-04-06T03:19:44.562Z,6.61
2017-04-06T03:20:45.740Z,6.65
2017-04-06T03:21:46.980Z,6.66
2017-04-06T03:22:48.237Z,6.68
2017-04-06T03:23:49.522Z,6.68
2017-04-06T03:24:50.757Z,6.65
2017-04-06T03:25:52.013Z,6.63
2017-04-06T03:26:53.228Z,6.72
2017-04-06T03:27:54.466Z,6.66
2017-04-06T03:28:55.705Z,6.72
2017-04-06T03:29:56.934Z,6.68
2017-04-06T03:30:58.197Z,6.72
2017-04-06T03:31:59.443Z,6.71
2017-04-06T03:33:00.679Z,6.65
2017-04-06T03:34:01.929Z,6.65
2017-04-06T03:35:03.180Z,6.68
2017-04-06T03:36:04.412Z,6.73
2017-04-06T03:37:05.655Z,6.71
2017-04-06T03:38:06.946Z,6.68
2017-04-06T03:39:08.191Z,6.8
2017-04-06T03:40:09.494Z,6.72
2017-04-06T03:41:10.759Z,6.66
2017-04-06T03:42:11.985Z,6.68
2017-04-06T03:43:13.230Z,6.71
2017-04-06T03:44:14.486Z,6.73
2017-04-06T03:45:15.746Z,6.71
2017-04-06T03:46:16.990Z,6.63
2017-04-06T03:47:18.242Z,6.63
2017-04-06T03:48:19.477Z,6.66
2017-04-06T03:49:20.752Z,6.66
2017-04-06T03:50:21.995Z,6.69
2017-04-06T03:51:23.244Z,6.71
2017-04-06T03:52:24.475Z,6.77
2017-04-06T03:53:25.713Z,6.73
2017-04-06T03:54:26.944Z,6.69
2017-04-06T03:55:28.203Z,6.71
2017-04-06T03:56:29.463Z,6.71
2017-04-06T03:57:30.714Z,6.71
2017-04-06T03:58:32.004Z,6.72
2017-04-06T03:59:33.299Z,6.87
2017-04-06T04:00:34.523Z,6.81
2017-04-06T04:01:35.772Z,6.69
2017-04-06T04:02:37.019Z,6.84
2017-04-06T04:03:38.252Z,6.81
2017-04-06T04:04:39.527Z,6.71
2017-04-06T04:05:40.868Z,6.8
2017-04-06T04:06:42.068Z,6.76
2017-04-06T04:07:43.321Z,6.83
2017-04-06T04:08:44.592Z,6.77
2017-04-06T04:09:45.801Z,6.84
2017-04-06T04:10:47.027Z,6.73
2017-04-06T04:11:48.306Z,6.84
2017-04-06T04:12:49.596Z,6.9
2017-04-06T04:13:50.833Z,6.87
2017-04-06T04:14:52.069Z,6.83
2017-04-06T04:15:53.300Z,6.83
2017-04-06T04:16:54.549Z,6.84
2017-04-06T04:17:55.817Z,6.79
2017-04-06T04:18:57.124Z,6.69
2017-04-06T04:19:58.417Z,6.77
2017-04-06T04:20:59.647Z,6.71
2017-04-06T04:22:00.863Z,6.81
2017-04-06T04:23:02.102Z,6.69
2017-04-06T04:24:03.341Z,6.77
2017-04-06T04:25:04.622Z,6.71
2017-04-06T04:26:05.869Z,6.71
2017-04-06T04:27:07.090Z,6.61
2017-04-06T04:28:08.327Z,6.63
2017-04-06T04:29:09.587Z,6.68
2017-04-06T04:30:11.045Z,6.65
2017-04-06T04:31:12.286Z,6.71
2017-04-06T04:32:13.564Z,6.63
2017-04-06T04:33:14.776Z,6.65
2017-04-06T04:34:16.005Z,6.59
2017-04-06T04:35:17.248Z,6.71
2017-04-06T04:36:18.517Z,6.72
2017-04-06T04:37:19.869Z,6.54
2017-04-06T04:38:21.129Z,6.56
2017-04-06T04:39:22.407Z,6.61
2017-04-06T04:40:23.601Z,6.56
2017-04-06T04:41:24.889Z,6.53
2017-04-06T04:42:26.107Z,6.58
2017-04-06T04:43:27.358Z,6.58
2017-04-06T04:44:28.618Z,6.56
2017-04-06T04:45:29.829Z,6.56
2017-04-06T04:46:31.065Z,6.62
2017-04-06T04:47:32.296Z,6.54
2017-04-06T04:48:33.587Z,6.58
2017-04-06T04:49:34.862Z,6.72
2017-04-06T04:50:36.103Z,6.69
2017-04-06T04:51:37.351Z,6.76
2017-04-06T04:52:38.588Z,6.71
2017-04-06T04:53:39.823Z,6.65
2017-04-06T04:54:41.071Z,6.66
2017-04-06T04:55:42.311Z,6.66
2017-04-06T04:56:43.546Z,6.63
2017-04-06T04:57:44.852Z,6.63
2017-04-06T04:58:46.146Z,6.63
2017-04-06T04:59:47.351Z,6.71
2017-04-06T05:00:48.578Z,6.72
2017-04-06T05:01:49.821Z,6.73
2017-04-06T05:02:51.084Z,6.73
2017-04-06T05:03:52.313Z,6.69
2017-04-06T05:04:53.570Z,6.68
2017-04-06T05:05:54.801Z,6.62
2017-04-06T05:06:56.016Z,6.63
2017-04-06T05:07:57.287Z,6.65
2017-04-06T05:08:58.536Z,6.63
2017-04-06T05:09:59.801Z,6.63
2017-04-06T05:11:01.115Z,6.59
2017-04-06T05:12:02.357Z,6.62
2017-04-06T05:13:03.591Z,6.66
2017-04-06T05:14:04.993Z,6.66
2017-04-06T05:15:06.232Z,6.54
2017-04-06T05:16:07.473Z,6.58
2017-04-06T05:17:08.727Z,6.58
2017-04-06T05:18:09.998Z,6.53
2017-04-06T05:19:11.208Z,6.5
2017-04-06T05:20:12.453Z,6.56
2017-04-06T05:21:13.762Z,6.54
2017-04-06T05:22:15.027Z,6.61
2017-04-06T05:23:16.268Z,6.69
2017-04-06T05:24:17.514Z,6.73
2017-04-06T05:25:18.751Z,6.76
2017-04-06T05:26:20.000Z,6.86
2017-04-06T05:27:21.236Z,6.86
2017-04-06T05:28:22.556Z,6.97
2017-04-06T05:29:23.868Z,7.09
2017-04-06T05:30:25.109Z,7.07
2017-04-06T05:31:26.347Z,7.07
2017-04-06T05:32:27.584Z,7.13
2017-04-06T05:33:28.827Z,7.08
2017-04-06T05:34:30.082Z,7.09
2017-04-06T05:35:31.397Z,7.16
2017-04-06T05:36:32.691Z,7.12
2017-04-06T05:37:33.919Z,7.15
2017-04-06T05:38:35.210Z,7.16
2017-04-06T05:39:36.444Z,7.15
2017-04-06T05:40:37.694Z,7.19
2017-04-06T05:41:38.955Z,7.13
2017-04-06T05:42:40.224Z,7.07
2017-04-06T05:43:41.435Z,7.07
2017-04-06T05:44:42.678Z,7.05
2017-04-06T05:45:43.915Z,7.09
2017-04-06T05:46:45.168Z,7.15
2017-04-06T05:47:46.397Z,7.09
2017-04-06T05:48:47.648Z,7.08
2017-04-06T05:49:48.882Z,7.07
2017-04-06T05:50:50.114Z,7.07
2017-04-06T05:51:51.355Z,7.04
2017-04-06T05:52:52.594Z,7.05
2017-04-06T05:53:53.833Z,7.08
2017-04-06T05:54:55.180Z,7.08
2017-04-06T05:55:56.489Z,6.99
2017-04-06T05:56:57.702Z,7.07
2017-04-06T05:57:58.955Z,7.13
2017-04-06T05:59:00.182Z,7.09
2017-04-06T06:00:01.412Z,7.15
2017-04-06T06:01:02.667Z,7.19
2017-04-06T06:02:03.939Z,7.15
2017-04-06T06:03:05.146Z,7.24
2017-04-06T06:04:06.421Z,7.22
2017-04-06T06:05:07.660Z,7.31
2017-04-06T06:06:08.924Z,7.37
2017-04-06T06:07:10.143Z,7.4
2017-04-06T06:08:11.382Z,7.44
2017-04-06T06:09:12.631Z,7.53
2017-04-06T06:10:13.862Z,7.53
2017-04-06T06:11:15.110Z,7.66
2017-04-06T06:12:16.349Z,7.63
2017-04-06T06:13:17.627Z,7.72
2017-04-06T06:14:18.882Z,7.67
2017-04-06T06:15:20.120Z,7.69
2017-04-06T06:16:21.361Z,7.72
2017-04-06T06:17:22.596Z,7.75
2017-04-06T06:18:23.834Z,7.67
2017-04-06T06:19:25.073Z,7.75
2017-04-06T06:20:26.312Z,7.69
2017-04-06T06:21:27.595Z,7.71
2017-04-06T06:22:28.871Z,7.72
2017-04-06T06:23:30.093Z,7.74
2017-04-06T06:24:31.330Z,7.74
2017-04-06T06:25:32.569Z,7.77
2017-04-06T06:26:33.862Z,7.87
2017-04-06T06:27:35.147Z,7.9
2017-04-06T06:28:36.492Z,7.94
2017-04-06T06:29:37.617Z,8.04
2017-04-06T06:30:38.850Z,8.1
2017-04-06T06:31:40.103Z,8.25
2017-04-06T06:32:41.342Z,8.36
2017-04-06T06:33:42.606Z,8.57
2017-04-06T06:34:43.858Z,8.65
2017-04-06T06:35:45.117Z,8.91
2017-04-06T06:36:46.346Z,9.18
2017-04-06T06:37:47.805Z,9.21
2017-04-06T06:38:49.193Z,9.39
2017-04-06T06:39:50.340Z,9.49
2017-04-06T06:40:51.567Z,9.66
2017-04-06T06:41:52.821Z,9.73
2017-04-06T06:42:54.063Z,9.88
2017-04-06T06:43:55.350Z,9.83
2017-04-06T06:44:56.623Z,9.93
2017-04-06T06:45:57.859Z,9.99
2017-04-06T06:46:59.166Z,10.06
2017-04-06T06:48:00.344Z,10.06
2017-04-06T06:49:01.583Z,10.07
2017-04-06T06:50:02.833Z,10.06
2017-04-06T06:51:04.070Z,10.12
2017-04-06T06:52:05.310Z,10.19
2017-04-06T06:53:06.552Z,10.3
2017-04-06T06:54:07.800Z,10.26
2017-04-06T06:55:09.035Z,10.34
2017-04-06T06:56:10.278Z,10.33
2017-04-06T06:57:11.694Z,10.33
2017-04-06T06:58:13.055Z,10.26
2017-04-06T06:59:14.263Z,10.32
2017-04-06T07:00:15.593Z,10.39
2017-04-06T07:01:16.822Z,10.44
2017-04-06T07:02:18.080Z,10.47
2017-04-06T07:03:19.415Z,10.58
2017-04-06T07:04:20.737Z,10.68
2017-04-06T07:05:22.021Z,10.74
2017-04-06T07:06:23.285Z,10.78
2017-04-06T07:07:24.544Z,10.8
2017-04-06T07:08:25.766Z,10.86
2017-04-06T07:09:27.039Z,10.92
2017-04-06T07:10:28.255Z,11.02
2017-04-06T07:11:29.494Z,11.13
2017-04-06T07:12:30.726Z,11.24
2017-04-06T07:13:31.973Z,11.28
2017-04-06T07:14:33.262Z,11.36
2017-04-06T07:15:34.532Z,11.44
2017-04-06T07:16:35.747Z,11.43
2017-04-06T07:17:37.019Z,11.43
2017-04-06T07:18:38.248Z,11.52
2017-04-06T07:19:39.549Z,11.53
2017-04-06T07:20:40.787Z,11.78
2017-04-06T07:21:42.027Z,11.97
2017-04-06T07:22:43.283Z,12.19
2017-04-06T07:23:44.619Z,12.37
2017-04-06T07:24:45.865Z,12.52
2017-04-06T07:25:47.102Z,12.48
2017-04-06T07:26:48.355Z,12.52
2017-04-06T07:27:49.582Z,12.66
2017-04-06T07:28:50.831Z,12.64
2017-04-06T07:29:52.092Z,12.88
2017-04-06T07:30:53.348Z,12.99
2017-04-06T07:31:54.629Z,12.99
2017-04-06T07:32:55.875Z,13.02
2017-04-06T07:33:57.155Z,12.95
2017-04-06T07:34:58.443Z,12.95
2017-04-06T07:35:59.890Z,12.88
2017-04-06T07:37:01.136Z,12.71
2017-04-06T07:38:02.395Z,12.74
2017-04-06T07:39:03.631Z,12.75
2017-04-06T07:40:04.887Z,12.97
2017-04-06T07:41:06.121Z,13.06
2017-04-06T07:42:07.372Z,13.21
2017-04-06T07:43:08.619Z,13.2
2017-04-06T07:44:09.961Z,13.33
2017-04-06T07:45:11.207Z,13.37
2017-04-06T07:46:12.450Z,13.62
2017-04-06T07:47:13.733Z,13.77
2017-04-06T07:48:14.956Z,14.1
2017-04-06T07:49:16.200Z,14.13
2017-04-06T07:50:17.426Z,14.42
2017-04-06T07:51:18.666Z,14.61
2017-04-06T07:52:19.912Z,14.78
2017-04-06T07:53:21.179Z,14.86
2017-04-06T07:54:22.445Z,14.87
2017-04-06T07:55:23.713Z,14.9
2017-04-06T07:56:24.950Z,15.17
2017-04-06T07:57:26.224Z,15.51
2017-04-06T07:58:27.503Z,15.79
2017-04-06T07:59:28.710Z,15.88
2017-04-06T08:00:29.954Z,16.07
2017-04-06T08:01:31.266Z,16.04
2017-04-06T08:02:32.547Z,15.92
2017-04-06T08:03:33.768Z,15.96
2017-04-06T08:04:35.005Z,16.25
2017-04-06T08:05:36.247Z,16.6
2017-04-06T08:06:37.513Z,17.2
2017-04-06T08:07:38.744Z,17.63
2017-04-06T08:08:39.991Z,17.76
2017-04-06T08:09:41.258Z,17.53
2017-04-06T08:10:42.527Z,17.33
2017-04-06T08:11:43.790Z,17.23
2017-04-06T08:12:45.031Z,17.14
2017-04-06T08:13:46.268Z,17.15
2017-04-06T08:14:47.589Z,17.13
2017-04-06T08:15:48.934Z,17.35
2017-04-06T08:16:50.215Z,17.63
2017-04-06T08:17:51.462Z,17.32
2017-04-06T08:18:52.712Z,17.44
2017-04-06T08:19:53.970Z,17.4
2017-04-06T08:20:55.311Z,17.06
2017-04-06T08:21:56.548Z,17.08
2017-04-06T08:22:57.808Z,17.14
2017-04-06T08:23:59.049Z,17.7
2017-04-06T08:25:00.288Z,18.1
2017-04-06T08:26:01.536Z,18.68
2017-04-06T08:27:02.785Z,18.84
2017-04-06T08:28:04.036Z,18.76
2017-04-06T08:29:05.297Z,18.5
2017-04-06T08:30:06.541Z,18.37
2017-04-06T08:31:07.791Z,18.09
2017-04-06T08:32:09.045Z,17.71
2017-04-06T08:33:10.285Z,17.35
2017-04-06T08:34:11.544Z,17.2
2017-04-06T08:35:12.796Z,17.47
2017-04-06T08:36:14.040Z,17.95
2017-04-06T08:37:15.290Z,18.46
2017-04-06T08:38:16.528Z,18.76
2017-04-06T08:39:17.768Z,18.72
2017-04-06T08:40:19.169Z,18.65
2017-04-06T08:41:20.423Z,18.72
2017-04-06T08:42:21.704Z,18.76
2017-04-06T08:43:22.930Z,18.55
2017-04-06T08:44:24.181Z,18.27
2017-04-06T08:45:25.446Z,17.94
2017-04-06T08:46:26.701Z,17.81
2017-04-06T08:47:27.952Z,17.47
2017-04-06T08:48:29.239Z,17.14
2017-04-06T08:49:30.515Z,17.04
2017-04-06T08:50:31.745Z,16.8
2017-04-06T08:51:32.995Z,16.4
2017-04-06T08:52:34.247Z,15.93
2017-04-06T08:53:35.561Z,15.64
2017-04-06T08:54:36.831Z,15.51
2017-04-06T08:55:38.054Z,15.27
2017-04-06T08:56:39.330Z,15.12
2017-04-06T08:57:40.617Z,15.01
2017-04-06T08:58:41.945Z,14.94
2017-04-06T08:59:43.229Z,14.78
2017-04-06T09:00:44.598Z,14.72
2017-04-06T09:01:45.808Z,14.49
2017-04-06T09:02:47.057Z,14.42
2017-04-06T09:03:48.310Z,14.21
2017-04-06T09:04:49.584Z,14.27
2017-04-06T09:05:50.969Z,14.1
2017-04-06T09:06:52.198Z,14.13
2017-04-06T09:07:53.448Z,14.12
2017-04-06T09:08:54.693Z,14.13
2017-04-06T09:09:55.935Z,14.32
2017-04-06T09:10:57.349Z,14.54
2017-04-06T09:11:58.579Z,14.87
2017-04-06T09:12:59.818Z,15.03
2017-04-06T09:14:01.057Z,14.98
2017-04-06T09:15:02.292Z,15.01
2017-04-06T09:16:03.553Z,15.19
2017-04-06T09:17:04.827Z,15.27
2017-04-06T09:18:06.074Z,15.3
2017-04-06T09:19:07.342Z,15.28
2017-04-06T09:20:08.581Z,15.2
2017-04-06T09:21:09.827Z,15.03
2017-04-06T09:22:11.063Z,14.98
2017-04-06T09:23:12.312Z,14.91
2017-04-06T09:24:13.559Z,14.65
2017-04-06T09:25:14.806Z,14.62
2017-04-06T09:26:16.040Z,14.57
2017-04-06T09:27:17.287Z,14.61
2017-04-06T09:28:18.529Z,14.57
2017-04-06T09:29:19.778Z,14.47
2017-04-06T09:30:21.067Z,14.49
2017-04-06T09:31:22.298Z,14.54
2017-04-06T09:32:23.711Z,14.62
2017-04-06T09:33:24.936Z,14.57
2017-04-06T09:34:26.181Z,14.54
2017-04-06T09:35:27.426Z,14.46
2017-04-06T09:36:28.671Z,14.46
2017-04-06T09:37:29.931Z,14.34
2017-04-06T09:38:31.181Z,14.29
2017-04-06T09:39:32.419Z,14.21
2017-04-06T09:40:33.649Z,14.04
2017-04-06T09:41:34.969Z,14.12
2017-04-06T09:42:36.199Z,14.16
2017-04-06T09:43:37.568Z,14.24
2017-04-06T09:44:38.876Z,14.35
2017-04-06T09:45:40.103Z,14.56
2017-04-06T09:46:41.473Z,14.8
2017-04-06T09:47:42.709Z,15.11
2017-04-06T09:48:43.990Z,15.39
2017-04-06T09:49:45.215Z,15.61
2017-04-06T09:50:46.466Z,15.81
2017-04-06T09:51:47.700Z,15.89
2017-04-06T09:52:48.943Z,15.97
2017-04-06T09:53:50.182Z,16.55
2017-04-06T09:54:51.566Z,17.13
2017-04-06T09:55:53.020Z,17.84
2017-04-06T09:56:54.214Z,18.36
2017-04-06T09:57:55.481Z,18.72
2017-04-06T09:58:56.702Z,19.15
2017-04-06T09:59:57.951Z,19.2
2017-04-06T10:00:59.231Z,19.17
2017-04-06T10:02:00.449Z,18.94
2017-04-06T10:03:01.702Z,18.9
2017-04-06T10:04:02.940Z,18.92
2017-04-06T10:05:04.193Z,18.72
2017-04-06T10:06:05.444Z,18.76
2017-04-06T10:07:06.692Z,18.73
2017-04-06T10:08:07.935Z,18.99
2017-04-06T10:09:09.169Z,19.08
2017-04-06T10:10:10.558Z,18.91
2017-04-06T10:11:11.688Z,18.67
2017-04-06T10:12:12.941Z,18.65
2017-04-06T10:13:14.185Z,18.57
2017-04-06T10:14:15.462Z,18.67
2017-04-06T10:15:16.703Z,18.33
2017-04-06T10:16:17.939Z,17.88
2017-04-06T10:17:19.180Z,17.62
2017-04-06T10:18:20.442Z,17.47
2017-04-06T10:19:21.670Z,17.25
2017-04-06T10:20:23.017Z,17.06
2017-04-06T10:21:24.258Z,16.92
2017-04-06T10:22:25.504Z,16.78
2017-04-06T10:23:26.746Z,16.48
2017-04-06T10:24:27.981Z,16.58
2017-04-06T10:25:29.231Z,16.98
2017-04-06T10:26:30.470Z,17.38
2017-04-06T10:27:31.807Z,17.89
2017-04-06T10:28:33.078Z,18.18
2017-04-06T10:29:34.311Z,18.31
2017-04-06T10:30:35.559Z,18.55
2017-04-06T10:31:36.785Z,18.72
2017-04-06T10:32:38.044Z,18.94
2017-04-06T10:33:39.351Z,18.86
2017-04-06T10:34:40.578Z,18.9
2017-04-06T10:35:41.825Z,18.57
2017-04-06T10:36:43.070Z,18.42
2017-04-06T10:37:44.321Z,18.07
2017-04-06T10:38:45.593Z,17.7
2017-04-06T10:39:46.919Z,17.35
2017-04-06T10:40:48.198Z,17.07
2017-04-06T10:41:49.441Z,16.81
2017-04-06T10:42:50.676Z,16.71
2017-04-06T10:43:51.927Z,16.62
2017-04-06T10:44:53.174Z,16.86
2017-04-06T10:45:54.417Z,16.95
2017-04-06T10:46:55.726Z,16.98
2017-04-06T10:47:56.978Z,17.13
2017-04-06T10:48:58.214Z,17.43
2017-04-06T10:49:59.539Z,17.5
2017-04-06T10:51:00.832Z,17.54
2017-04-06T10:52:02.098Z,17.5
2017-04-06T10:53:03.342Z,17.41
2017-04-06T10:54:04.742Z,17.25
2017-04-06T10:55:06.078Z,17.06
2017-04-06T10:56:07.419Z,16.95
2017-04-06T10:57:08.683Z,16.9
2017-04-06T10:58:09.916Z,16.83
2017-04-06T10:59:11.149Z,16.73
2017-04-06T11:00:12.582Z,16.56
2017-04-06T11:01:13.733Z,16.34
2017-04-06T11:02:14.981Z,16.33
2017-04-06T11:03:16.228Z,16.42
2017-04-06T11:04:17.492Z,16.48
2017-04-06T11:05:18.747Z,16.53
2017-04-06T11:06:20.100Z,16.56
2017-04-06T11:07:21.349Z,16.62
2017-04-06T11:08:22.584Z,16.7
2017-04-06T11:09:23.829Z,16.8
2017-04-06T11:10:25.104Z,16.95
2017-04-06T11:11:26.385Z,17.03
2017-04-06T11:12:27.654Z,17.04
2017-04-06T11:13:28.893Z,17.03
2017-04-06T11:14:30.143Z,16.9
2017-04-06T11:15:31.402Z,16.5
2017-04-06T11:16:32.630Z,16.34
2017-04-06T11:17:33.910Z,16.26
2017-04-06T11:18:35.209Z,16.22
2017-04-06T11:19:36.451Z,16.3
2017-04-06T11:20:37.696Z,16.22
2017-04-06T11:21:38.944Z,16.11
2017-04-06T11:22:40.207Z,15.99
2017-04-06T11:23:41.574Z,15.97
2017-04-06T11:24:42.781Z,15.88
2017-04-06T11:25:44.025Z,15.92
2017-04-06T11:26:45.264Z,15.92
2017-04-06T11:27:46.528Z,15.92
2017-04-06T11:28:47.851Z,15.85
2017-04-06T11:29:49.161Z,15.84
2017-04-06T11:30:50.410Z,15.97
2017-04-06T11:31:51.650Z,16.06
2017-04-06T11:32:52.909Z,16.14
2017-04-06T11:33:54.144Z,16.26
2017-04-06T11:34:55.397Z,16.33
2017-04-06T11:35:56.662Z,16.59
2017-04-06T11:36:57.895Z,16.48
2017-04-06T11:37:59.136Z,16.4
2017-04-06T11:39:00.386Z,16.27
2017-04-06T11:40:01.631Z,16.22
2017-04-06T11:41:02.869Z,16
2017-04-06T11:42:04.162Z,16.06
2017-04-06T11:43:05.399Z,15.97
2017-04-06T11:44:06.672Z,15.92
2017-04-06T11:45:07.909Z,15.92
2017-04-06T11:46:09.156Z,15.96
2017-04-06T11:47:10.422Z,16.18
2017-04-06T11:48:11.695Z,16.23
2017-04-06T11:49:13.130Z,16.14
2017-04-06T11:50:14.466Z,16.01
2017-04-06T11:51:15.707Z,15.97
2017-04-06T11:52:16.942Z,15.86
2017-04-06T11:53:18.183Z,15.92
2017-04-06T11:54:19.522Z,15.97
2017-04-06T11:55:20.761Z,16
2017-04-06T11:56:22.002Z,15.89
2017-04-06T11:57:23.256Z,15.93
2017-04-06T11:58:24.500Z,15.88
2017-04-06T11:59:25.838Z,15.75
2017-04-06T12:00:27.096Z,15.78
2017-04-06T12:01:28.338Z,15.78
2017-04-06T12:02:29.676Z,15.84
2017-04-06T12:03:30.924Z,15.79
2017-04-06T12:04:32.164Z,15.76
2017-04-06T12:05:33.403Z,15.75
2017-04-06T12:06:34.689Z,15.6
2017-04-06T12:07:35.970Z,15.43
2017-04-06T12:08:37.247Z,15.43
2017-04-06T12:09:38.467Z,15.33
2017-04-06T12:10:39.728Z,15.28
2017-04-06T12:11:40.972Z,15.26
2017-04-06T12:12:42.263Z,15.26
2017-04-06T12:13:43.596Z,15.27
2017-04-06T12:14:44.857Z,15.23
2017-04-06T12:15:46.103Z,15.21
2017-04-06T12:16:47.381Z,15.03
2017-04-06T12:17:48.634Z,15.11
2017-04-06T12:18:49.933Z,15.15
2017-04-06T12:19:51.240Z,15.06
2017-04-06T12:20:52.527Z,14.98
2017-04-06T12:21:53.827Z,14.91
2017-04-06T12:22:55.217Z,14.91
2017-04-06T12:23:56.457Z,14.84
2017-04-06T12:24:57.719Z,14.8
2017-04-06T12:25:59.024Z,14.81
2017-04-06T12:27:00.269Z,14.9
2017-04-06T12:28:01.546Z,15.11
2017-04-06T12:29:02.820Z,15.21
2017-04-06T12:30:04.042Z,15.2
2017-04-06T12:31:05.293Z,15.23
2017-04-06T12:32:06.540Z,15.31
2017-04-06T12:33:07.787Z,15.23
2017-04-06T12:34:09.029Z,15.01
2017-04-06T12:35:10.279Z,14.93
2017-04-06T12:36:11.515Z,14.84
2017-04-06T12:37:12.765Z,14.74
2017-04-06T12:38:14.023Z,14.68
2017-04-06T12:39:15.270Z,14.61
2017-04-06T12:40:16.517Z,14.64
2017-04-06T12:41:17.848Z,14.65
2017-04-06T12:42:19.139Z,14.72
2017-04-06T12:43:20.481Z,14.84
2017-04-06T12:44:21.752Z,14.84
2017-04-06T12:45:23.016Z,14.9
2017-04-06T12:46:24.240Z,15.01
2017-04-06T12:47:25.546Z,15.2
2017-04-06T12:48:26.785Z,15.2
2017-04-06T12:49:28.037Z,15.2
2017-04-06T12:50:29.255Z,15.28
2017-04-06T12:51:30.574Z,15.28
2017-04-06T12:52:31.774Z,15.13
2017-04-06T12:53:33.021Z,15.15
2017-04-06T12:54:34.286Z,15.08
2017-04-06T12:55:35.626Z,15.11
2017-04-06T12:56:36.915Z,15.08
2017-04-06T12:57:38.140Z,15.06
2017-04-06T12:58:39.378Z,14.99
2017-04-06T12:59:40.635Z,14.94
2017-04-06T13:00:41.881Z,14.99
2017-04-06T13:01:43.136Z,15.03
2017-04-06T13:02:44.405Z,14.88
2017-04-06T13:03:45.673Z,14.91
2017-04-06T13:04:46.894Z,14.95
2017-04-06T13:05:48.172Z,14.86
2017-04-06T13:06:49.416Z,14.83
2017-04-06T13:07:50.650Z,14.84
2017-04-06T13:08:51.961Z,14.83
2017-04-06T13:09:53.198Z,14.95
2017-04-06T13:10:54.485Z,15.11
2017-04-06T13:11:55.714Z,15.11
2017-04-06T13:12:56.956Z,15.3
2017-04-06T13:13:58.196Z,15.31
2017-04-06T13:14:59.538Z,15.27
2017-04-06T13:16:00.798Z,15.19
2017-04-06T13:17:02.030Z,15.26
2017-04-06T13:18:03.292Z,15.12
2017-04-06T13:19:04.531Z,15.09
2017-04-06T13:20:05.838Z,15.06
2017-04-06T13:21:07.230Z,15.01
2017-04-06T13:22:08.499Z,15.03
2017-04-06T13:23:09.716Z,15.09
2017-04-06T13:24:10.981Z,15.2